Pagina principală
METAR-TAF:

METAR-TAF

Aeroporturi :

Aeroportul Oradea

Oradea, România

Latitudine: 47-03N, longitudine: 021-56E, elevație: 135 m

Observații meteo curente

Raportul a fost făcut în urmă cu 43 de minute, la 01:30 UTC
Vânt 6 kt de la Est
Temperatură 5°C
Umiditate 87%
Presiune 1017 hPa
Vizibilitate de 10 km sau mai mult

METAR: LROD 230130Z AUTO 08006KT 9999 NCD 05/03 Q1017

Ora: 05:13 (02:13 UTC)

Prognoză

Raportul a fost făcut în urmă cu 9 ore și 13 de minute, la 17:00 UTC
Prognoză valabilă de la 22 ora 18 UTC la 23 ora 03 UTC
Vânt 7 kt de la Est
Vizibilitate de 10 km sau mai mult
nu există nori sub 1.500 m și nici cumulonimbus

TAF: LROD 221700Z 2218/2303 10007KT CAVOK

Observații și prognoze meteo pentru peste 4.000 de aeroporturi (rapoarte METAR și TAF).

Stațiile disponibile sunt reprezentate pe hartă prin puncte galbene și roșii.

Țineți indicatorul mouse-ului pe punctul dorit pentru a vedea denumirea stației.

Apoi, faceți clic pentru a vedea observațiile și prognozele meteorologice.

Pentru a schimba harta: Pentru mărire, faceți clic pe butoanele verzi cu cruce neagră; pentru micșorare, pe butonul verde cu o liniuță; pentru hărți învecinate, pe săgețile verzi.


METAR-TAF: